Terminal Aerodrome Forecast
Issued by NWS Dodge City, KS

Home | Current Version | Previous Version | Graphics & Text | Print | Product List | Glossary Off
Versions: 1 2 3 4 5 6 7 8 9 10 11 12 13 14 15 16 17 18 19 20 21 22 23 24 25 26 27 28 29 30 31 32 33 34 35 36 37 38 39 40 41 42 43 44 45 46 47 48 49

000
FTUS43 KDDC 232320
TAFDDC
TAF
KDDC 232320Z 2400/2424 16029G37KT 4SM DU BKN028
     FM240300 16026G35KT P6SM VCTS BKN090CB
     FM240500 16025G33KT 6SM DU BKN110 WS020/18055KT
     FM241300 16018KT P6SM BKN200
     FM241800 13016KT P6SM BKN150
     FM242000 03014KT P6SM BKN080=

USA.gov is the U.S. government's official web portal to all federal, state and local government web resources and services.